Time;durP1;ratioP1;P1;durP2;ratioP2;P2;SDS_P1;SDS_P2;PMS_P1;PMS_P2;Temp;Humidity;BMP_temperature;BMP_pressure;BME280_temperature;BME280_humidity;BME280_pressure;Samples;Min_cycle;Max_cycle;Signal;HPM_P1;HPM_P2
2023/05/29 00:00:53;;;;;;;7.17;5.47;;;;;;;17.06;44.63;96180.84;4988220;28;20231;-70
2023/05/29 00:03:18;;;;;;;9.97;6.20;;;;;;;17.03;45.04;96178.44;4988627;28;20193;-69
2023/05/29 00:05:44;;;;;;;7.73;6.87;;;;;;;16.95;45.26;96180.78;5007614;28;20181;-70
2023/05/29 00:08:09;;;;;;;12.00;5.80;;;;;;;16.96;44.97;96174.53;5008015;28;20562;-70
2023/05/29 00:10:37;;;;;;;8.77;7.30;;;;;;;16.81;45.30;96183.59;5007659;28;20173;-70
2023/05/29 00:13:02;;;;;;;9.90;6.67;;;;;;;16.90;45.03;96182.94;5007549;28;20641;-70
2023/05/29 00:15:28;;;;;;;14.80;6.83;;;;;;;16.88;45.50;96176.88;5007252;28;20421;-71
2023/05/29 00:17:53;;;;;;;10.70;5.70;;;;;;;16.75;45.52;96184.00;5007313;28;20592;-70
2023/05/29 00:20:19;;;;;;;15.93;6.93;;;;;;;16.74;45.79;96180.50;5007503;28;20180;-70
2023/05/29 00:22:44;;;;;;;7.30;5.20;;;;;;;16.68;45.64;96181.81;5006931;28;20291;-69
2023/05/29 00:25:10;;;;;;;9.77;6.00;;;;;;;16.65;46.05;96179.38;5006927;28;20236;-68
2023/05/29 00:27:36;;;;;;;8.40;6.00;;;;;;;16.58;46.22;96175.44;5006885;28;20196;-71
2023/05/29 00:30:03;;;;;;;12.10;7.30;;;;;;;16.63;45.97;96176.00;5005343;28;20183;-70
2023/05/29 00:32:28;;;;;;;9.27;5.00;;;;;;;16.53;46.06;96169.63;4987150;28;20184;-69
2023/05/29 00:34:54;;;;;;;9.20;5.30;;;;;;;16.50;46.02;96172.53;4986789;28;20412;-70
2023/05/29 00:37:21;;;;;;;6.80;4.93;;;;;;;16.55;46.50;96170.38;4986885;28;20209;-71
2023/05/29 00:39:47;;;;;;;12.83;5.73;;;;;;;16.62;46.22;96166.34;4986803;28;20428;-70
2023/05/29 00:42:13;;;;;;;7.63;5.63;;;;;;;16.59;46.01;96166.56;4988865;28;20534;-69
2023/05/29 00:44:38;;;;;;;8.20;5.97;;;;;;;16.56;46.06;96177.38;5006750;28;20964;-70
2023/05/29 00:47:04;;;;;;;11.40;6.90;;;;;;;16.46;46.43;96176.34;4995320;28;20947;-70
2023/05/29 00:49:29;;;;;;;8.00;5.47;;;;;;;16.48;46.74;96171.78;4987141;28;20173;-70
2023/05/29 00:51:55;;;;;;;7.53;5.50;;;;;;;16.45;46.41;96169.34;4987373;28;20793;-70
2023/05/29 00:54:26;;;;;;;8.40;5.40;;;;;;;16.44;46.43;96173.81;4987015;28;20335;-69
2023/05/29 00:56:52;;;;;;;10.20;5.40;;;;;;;16.35;46.55;96171.81;4986977;28;20435;-70
2023/05/29 00:59:21;;;;;;;8.50;5.43;;;;;;;16.43;45.98;96168.63;4986844;28;20404;-70
2023/05/29 01:01:47;;;;;;;10.10;5.40;;;;;;;16.48;46.21;96177.06;4986767;28;20176;-69
2023/05/29 01:04:15;;;;;;;7.60;5.50;;;;;;;16.37;46.50;96174.31;4986454;28;20546;-69
2023/05/29 01:06:41;;;;;;;9.37;6.00;;;;;;;16.29;46.63;96174.88;4985978;28;20428;-69
2023/05/29 01:09:06;;;;;;;8.70;6.33;;;;;;;16.34;46.31;96170.09;4987241;28;20424;-70
2023/05/29 01:12:03;;;;;;;11.77;6.20;;;;;;;16.41;46.08;96165.22;4993231;28;20618;-70
2023/05/29 01:14:42;;;;;;;7.03;5.73;;;;;;;16.41;45.69;96176.66;4991243;28;20177;-70
2023/05/29 01:17:49;;;;;;;7.87;5.70;;;;;;;16.11;46.69;96179.69;4989776;28;20505;-69
2023/05/29 01:20:41;;;;;;;14.80;5.70;;;;;;;16.06;46.54;96181.78;4979501;28;20458;-70
2023/05/29 01:23:45;;;;;;;9.20;5.40;;;;;;;16.23;46.02;96177.97;4986549;28;20471;-69
2023/05/29 01:26:20;;;;;;;12.37;5.40;;;;;;;16.16;46.46;96177.56;4986745;28;20443;-68
2023/05/29 01:28:49;;;;;;;7.53;5.90;;;;;;;16.19;46.74;96182.63;4986489;28;20419;-70
2023/05/29 01:31:19;;;;;;;7.13;5.27;;;;;;;16.26;46.86;96188.34;4986500;28;20455;-69
2023/05/29 01:33:54;;;;;;;11.07;6.63;;;;;;;16.24;46.72;96184.94;4986480;28;20420;-69
2023/05/29 01:36:20;;;;;;;10.33;6.10;;;;;;;16.13;47.36;96180.38;5002269;28;20434;-70
2023/05/29 01:38:45;;;;;;;9.77;5.50;;;;;;;16.08;47.46;96178.06;5005664;28;20430;-69
2023/05/29 01:41:11;;;;;;;7.80;5.77;;;;;;;16.07;47.54;96181.69;4995170;28;20319;-69
2023/05/29 01:43:37;;;;;;;10.13;6.67;;;;;;;16.16;47.13;96182.84;4985639;28;20200;-69
2023/05/29 01:46:02;;;;;;;11.00;6.47;;;;;;;16.14;47.26;96183.91;4985730;28;20219;-69
2023/05/29 01:48:28;;;;;;;6.80;5.37;;;;;;;16.11;47.22;96184.97;4983978;28;20216;-70
2023/05/29 01:50:55;;;;;;;6.77;5.00;;;;;;;16.05;47.34;96188.03;4984652;28;20181;-70
2023/05/29 01:53:20;;;;;;;11.07;6.50;;;;;;;15.98;47.04;96189.41;4988683;28;20180;-71
2023/05/29 01:55:46;;;;;;;10.73;5.80;;;;;;;16.03;46.94;96192.56;5005640;28;20473;-68
2023/05/29 01:58:13;;;;;;;16.13;7.80;;;;;;;15.92;47.58;96185.41;4996084;28;20180;-69
2023/05/29 02:00:40;;;;;;;12.00;5.87;;;;;;;15.81;47.69;96188.75;4986043;28;20176;-70
2023/05/29 02:03:05;;;;;;;11.90;5.80;;;;;;;15.86;47.86;96191.94;4985996;28;20455;-69
2023/05/29 02:05:30;;;;;;;7.37;6.07;;;;;;;15.90;47.53;96189.94;4985624;28;20499;-70
2023/05/29 02:07:56;;;;;;;8.00;6.37;;;;;;;15.93;47.56;96187.06;4986096;28;20560;-70
2023/05/29 02:10:21;;;;;;;13.63;6.23;;;;;;;15.87;47.74;96177.78;4995439;28;20183;-70
2023/05/29 02:12:47;;;;;;;16.80;7.23;;;;;;;15.86;47.90;96185.81;5005573;28;20561;-70
2023/05/29 02:15:12;;;;;;;11.17;5.70;;;;;;;15.89;47.85;96180.28;5004953;28;20307;-69
2023/05/29 02:17:37;;;;;;;12.07;7.60;;;;;;;15.81;48.27;96177.34;5005243;28;20206;-68
2023/05/29 02:20:04;;;;;;;6.10;5.00;;;;;;;15.82;48.05;96185.16;5037153;28;20259;-68
2023/05/29 02:22:29;;;;;;;7.47;5.60;;;;;;;15.77;48.30;96179.34;5005447;28;20681;-71
2023/05/29 02:24:55;;;;;;;6.10;5.00;;;;;;;15.82;48.40;96179.84;5005473;28;20415;-70
2023/05/29 02:27:20;;;;;;;10.30;6.40;;;;;;;15.81;48.32;96177.34;5005304;28;20930;-70
2023/05/29 02:29:46;;;;;;;10.73;6.60;;;;;;;15.71;48.80;96182.41;5005500;28;20298;-69
2023/05/29 02:32:11;;;;;;;11.97;6.03;;;;;;;15.76;48.41;96177.66;5005356;28;20172;-70
2023/05/29 02:34:37;;;;;;;8.67;5.70;;;;;;;15.70;48.28;96185.13;5005268;28;20591;-68
2023/05/29 02:37:02;;;;;;;23.40;7.60;;;;;;;15.73;48.61;96183.16;5004854;28;20573;-68
2023/05/29 02:39:28;;;;;;;18.47;7.63;;;;;;;15.75;48.40;96186.53;5005324;28;20179;-70
2023/05/29 02:41:54;;;;;;;9.13;6.03;;;;;;;15.74;48.47;96184.84;5005572;28;20172;-69
2023/05/29 02:44:20;;;;;;;14.20;6.97;;;;;;;15.73;48.76;96177.88;5005048;28;20200;-68
2023/05/29 02:46:45;;;;;;;14.50;6.80;;;;;;;15.73;48.70;96184.94;4996446;28;20444;-70
2023/05/29 02:49:11;;;;;;;15.73;6.37;;;;;;;15.64;48.77;96170.53;4985366;28;20177;-69
2023/05/29 02:51:37;;;;;;;19.90;6.60;;;;;;;15.57;48.93;96182.47;4985666;28;20588;-70
2023/05/29 02:54:02;;;;;;;13.80;6.00;;;;;;;15.55;49.35;96185.22;4984854;28;20191;-70
2023/05/29 02:56:28;;;;;;;10.67;6.30;;;;;;;15.53;49.58;96184.47;4983688;28;20200;-70
2023/05/29 02:58:53;;;;;;;10.33;5.30;;;;;;;15.57;49.31;96185.13;4985100;28;20271;-70
2023/05/29 03:01:19;;;;;;;13.67;6.03;;;;;;;15.54;49.33;96180.00;4984710;28;20223;-70
2023/05/29 03:03:45;;;;;;;14.53;6.60;;;;;;;15.51;49.54;96185.50;4984584;28;20204;-70
2023/05/29 03:06:12;;;;;;;14.60;6.10;;;;;;;15.46;49.95;96183.16;5000036;28;20208;-70
2023/05/29 03:08:40;;;;;;;6.80;5.43;;;;;;;15.46;49.59;96180.53;5003624;28;20179;-70
2023/05/29 03:11:10;;;;;;;11.60;5.80;;;;;;;15.43;49.85;96184.22;4985255;28;20420;-70
2023/05/29 03:13:36;;;;;;;17.33;6.20;;;;;;;15.32;50.37;96186.72;4985034;28;20558;-70
2023/05/29 03:16:02;;;;;;;21.93;6.80;;;;;;;15.28;50.23;96187.88;4985655;28;20419;-70
2023/05/29 03:18:27;;;;;;;26.97;7.20;;;;;;;15.23;50.60;96185.53;4984950;28;21046;-69
2023/05/29 03:20:53;;;;;;;11.13;6.07;;;;;;;15.24;50.65;96181.97;4987180;28;20189;-69
2023/05/29 03:23:19;;;;;;;19.70;7.20;;;;;;;15.17;50.69;96180.66;5004818;28;20852;-70
2023/05/29 03:25:45;;;;;;;9.63;6.47;;;;;;;15.13;51.08;96180.97;5004726;28;20180;-70
2023/05/29 03:28:10;;;;;;;29.10;7.07;;;;;;;15.10;50.97;96186.47;5004676;28;20684;-70
2023/05/29 03:30:35;;;;;;;24.90;7.60;;;;;;;15.14;51.02;96182.66;5006178;28;20699;-70
2023/05/29 03:33:03;;;;;;;13.43;6.13;;;;;;;15.14;51.31;96182.66;5008225;28;20175;-70
2023/05/29 03:35:29;;;;;;;11.40;5.87;;;;;;;15.08;51.14;96181.28;5007913;28;20184;-70
2023/05/29 03:37:55;;;;;;;8.57;5.67;;;;;;;15.04;51.00;96191.19;5008018;28;21217;-69
2023/05/29 03:40:20;;;;;;;17.50;7.27;;;;;;;15.00;50.74;96184.41;5007780;28;20423;-69
2023/05/29 03:42:46;;;;;;;14.10;6.07;;;;;;;14.98;50.67;96188.13;5007926;28;20210;-70
2023/05/29 03:45:11;;;;;;;10.77;5.30;;;;;;;15.26;50.15;96181.88;5007731;28;20222;-68
2023/05/29 03:47:36;;;;;;;15.50;5.40;;;;;;;15.11;50.01;96181.06;4987693;28;20255;-69
2023/05/29 03:50:02;;;;;;;21.60;7.90;;;;;;;15.24;49.71;96187.25;4993144;28;20531;-69
2023/05/29 03:52:27;;;;;;;9.20;5.90;;;;;;;15.33;49.25;96187.56;4994664;28;20180;-68
2023/05/29 03:54:53;;;;;;;8.63;5.50;;;;;;;15.31;49.70;96189.50;4992034;28;20643;-69
2023/05/29 03:57:18;;;;;;;11.57;5.80;;;;;;;15.32;49.69;96191.19;4988649;28;20209;-70
2023/05/29 03:59:43;;;;;;;13.83;6.53;;;;;;;15.55;49.21;96187.00;4988410;28;20243;-70
2023/05/29 04:02:09;;;;;;;15.10;6.77;;;;;;;15.68;48.96;96182.56;4988304;28;20280;-69
2023/05/29 04:04:35;;;;;;;15.60;6.70;;;;;;;15.54;49.24;96185.28;4993661;28;20232;-70
2023/05/29 04:07:00;;;;;;;11.27;6.53;;;;;;;15.76;48.78;96193.53;5007988;28;20967;-69
2023/05/29 04:09:26;;;;;;;12.53;6.03;;;;;;;16.03;48.41;96195.22;5009653;28;20180;-70
2023/05/29 04:11:51;;;;;;;9.53;5.27;;;;;;;16.23;47.14;96194.69;5011442;28;20200;-70
2023/05/29 04:14:17;;;;;;;10.13;5.70;;;;;;;16.37;47.11;96190.22;5010670;28;21051;-70
2023/05/29 04:16:43;;;;;;;11.83;6.60;;;;;;;16.13;47.49;96196.28;5014099;28;20708;-70
2023/05/29 04:19:08;;;;;;;8.57;5.17;;;;;;;15.88;48.15;96197.97;5008149;28;20180;-69
2023/05/29 04:21:34;;;;;;;18.07;6.33;;;;;;;15.93;48.22;96196.81;5008127;28;20537;-70
2023/05/29 04:24:00;;;;;;;33.80;8.30;;;;;;;16.44;46.95;96202.94;5006864;28;20231;-69
2023/05/29 04:26:25;;;;;;;7.80;5.20;;;;;;;16.45;46.43;96204.63;5007136;28;20263;-70
2023/05/29 04:28:57;;;;;;;12.53;6.10;;;;;;;16.87;45.90;96212.31;5007361;28;20260;-68
2023/05/29 04:31:25;;;;;;;8.03;5.00;;;;;;;16.91;45.91;96213.75;5007662;28;20224;-70
2023/05/29 04:33:54;;;;;;;12.80;6.73;;;;;;;17.00;45.31;96212.25;5006369;28;20412;-70
2023/05/29 04:36:25;;;;;;;14.10;5.83;;;;;;;17.00;45.86;96220.22;5016318;28;20936;-70
2023/05/29 04:38:51;;;;;;;8.80;5.93;;;;;;;17.16;44.81;96215.50;5006460;28;20894;-70
2023/05/29 04:41:16;;;;;;;18.23;6.10;;;;;;;16.96;45.33;96218.75;4999564;28;20447;-70
2023/05/29 04:43:42;;;;;;;10.00;6.10;;;;;;;16.91;45.91;96216.41;4986387;28;20204;-70
2023/05/29 04:46:12;;;;;;;9.43;5.57;;;;;;;16.96;45.61;96224.91;4986951;28;20739;-69
2023/05/29 04:48:40;;;;;;;18.07;6.50;;;;;;;17.07;45.42;96227.59;4986986;28;20207;-70
2023/05/29 04:51:06;;;;;;;17.17;7.10;;;;;;;17.20;44.78;96224.94;4986950;28;20538;-70
2023/05/29 04:53:32;;;;;;;12.10;7.40;;;;;;;17.41;44.63;96225.16;4986217;28;20453;-69
2023/05/29 04:55:57;;;;;;;18.33;6.33;;;;;;;17.52;44.25;96227.84;4986865;28;20420;-70
2023/05/29 04:58:25;;;;;;;34.33;9.63;;;;;;;17.59;44.95;96230.03;4986958;28;20256;-69
2023/05/29 05:00:51;;;;;;;13.30;7.60;;;;;;;17.91;43.28;96233.81;4986848;28;20180;-70
2023/05/29 05:03:16;;;;;;;10.33;5.13;;;;;;;18.18;42.77;96233.50;4986740;28;20893;-69
2023/05/29 05:05:43;;;;;;;9.13;5.43;;;;;;;18.20;43.38;96238.69;4986063;28;20183;-70
2023/05/29 05:08:11;;;;;;;7.90;5.90;;;;;;;18.16;42.84;96239.88;5018091;28;20231;-70
2023/05/29 05:10:37;;;;;;;11.40;6.10;;;;;;;18.02;43.65;96242.75;4986393;28;20527;-70
2023/05/29 05:13:03;;;;;;;8.00;5.70;;;;;;;17.99;43.11;96239.38;5005244;28;20510;-70
2023/05/29 05:15:28;;;;;;;17.10;8.30;;;;;;;18.17;43.37;96245.09;5000936;28;20741;-70
2023/05/29 05:17:54;;;;;;;8.60;5.93;;;;;;;18.07;43.00;96235.28;4986802;28;20200;-69
2023/05/29 05:20:19;;;;;;;23.03;7.10;;;;;;;18.45;42.45;96244.75;4986816;28;20378;-70
2023/05/29 05:22:45;;;;;;;13.00;6.40;;;;;;;18.12;42.86;96255.22;4993698;28;20324;-70
2023/05/29 05:25:11;;;;;;;6.93;5.57;;;;;;;17.96;43.09;96247.56;4994623;28;20185;-70
2023/05/29 05:27:37;;;;;;;11.13;5.87;;;;;;;18.12;43.39;96246.41;4997493;28;20199;-70
2023/05/29 05:30:03;;;;;;;9.80;6.30;;;;;;;18.53;41.79;96253.81;5007963;28;20409;-69
2023/05/29 05:32:29;;;;;;;13.03;6.17;;;;;;;18.27;42.44;96249.69;5006179;28;20181;-69
2023/05/29 05:34:54;;;;;;;6.90;6.03;;;;;;;18.03;42.79;96250.63;5004967;28;20415;-68
2023/05/29 05:37:23;;;;;;;8.87;5.30;;;;;;;17.84;43.61;96248.50;5006141;28;20204;-70
2023/05/29 05:39:49;;;;;;;9.57;5.90;;;;;;;18.25;42.74;96249.81;5005727;28;20184;-70
2023/05/29 05:42:14;;;;;;;5.70;4.23;;;;;;;18.32;42.45;96244.88;5005542;28;21074;-70
2023/05/29 05:44:40;;;;;;;13.50;5.37;;;;;;;18.25;43.02;96252.47;5005185;28;20462;-70
2023/05/29 05:47:05;;;;;;;15.73;5.83;;;;;;;18.27;42.32;96255.00;5005394;28;20211;-70
2023/05/29 05:49:31;;;;;;;7.87;6.07;;;;;;;18.42;42.23;96248.50;4995376;28;20255;-70
2023/05/29 05:51:56;;;;;;;6.70;5.23;;;;;;;18.51;41.96;96252.25;4986315;28;20526;-70
2023/05/29 05:54:21;;;;;;;8.77;5.70;;;;;;;18.17;43.11;96261.03;4985107;28;20942;-70
2023/05/29 05:56:47;;;;;;;9.23;5.50;;;;;;;18.88;41.78;96260.03;4986276;28;20207;-69
2023/05/29 05:59:12;;;;;;;12.50;6.33;;;;;;;19.06;41.66;96258.53;4985653;28;20206;-70
2023/05/29 06:01:38;;;;;;;10.37;5.63;;;;;;;18.87;41.84;96261.81;4978555;28;20213;-70
2023/05/29 06:04:04;;;;;;;10.30;6.13;;;;;;;19.00;41.18;96264.38;4989544;28;20203;-70
2023/05/29 06:06:31;;;;;;;11.10;5.33;;;;;;;18.64;42.12;96263.63;5004574;28;20204;-69
2023/05/29 06:08:58;;;;;;;7.73;5.67;;;;;;;18.11;42.86;96258.81;4989814;28;20980;-69
2023/05/29 06:11:25;;;;;;;7.07;5.47;;;;;;;18.40;43.15;96263.72;4984128;28;21033;-69
2023/05/29 06:13:51;;;;;;;7.33;5.67;;;;;;;18.23;42.53;96259.69;4984457;28;20412;-70
2023/05/29 06:16:17;;;;;;;8.83;5.90;;;;;;;17.91;43.42;96270.97;4992612;28;21155;-69
2023/05/29 06:18:44;;;;;;;10.83;6.70;;;;;;;17.74;43.79;96266.03;4987510;28;20431;-69
2023/05/29 06:21:09;;;;;;;11.33;6.10;;;;;;;18.26;42.82;96263.94;4984763;28;20816;-69
2023/05/29 06:23:36;;;;;;;7.20;5.77;;;;;;;18.14;43.54;96271.91;4982837;28;20460;-69
2023/05/29 06:26:03;;;;;;;7.90;5.23;;;;;;;18.07;43.77;96277.75;4983396;28;20694;-68
2023/05/29 06:28:29;;;;;;;7.80;5.70;;;;;;;18.55;42.71;96274.97;4984701;28;20435;-70
2023/05/29 06:30:54;;;;;;;14.87;5.77;;;;;;;18.71;42.44;96283.44;4984566;28;20443;-69
2023/05/29 06:33:21;;;;;;;8.67;6.20;;;;;;;18.86;42.42;96293.88;4983884;28;20188;-68
2023/05/29 06:35:46;;;;;;;7.60;5.87;;;;;;;18.66;42.68;96292.72;4983819;28;20267;-70
2023/05/29 06:38:13;;;;;;;9.00;5.70;;;;;;;18.76;42.66;96291.94;4984964;28;21176;-69
2023/05/29 06:40:38;;;;;;;11.63;6.67;;;;;;;18.68;42.62;96293.47;4980745;28;20180;-68
2023/05/29 06:43:04;;;;;;;9.60;5.87;;;;;;;19.04;41.80;96303.06;4984768;28;21068;-68
2023/05/29 06:45:29;;;;;;;7.30;5.57;;;;;;;18.65;42.97;96297.22;4984315;28;20210;-69
2023/05/29 06:47:55;;;;;;;10.90;5.77;;;;;;;18.88;42.64;96299.91;4984921;28;20209;-69
2023/05/29 06:50:20;;;;;;;12.93;6.43;;;;;;;19.17;42.41;96297.59;4984152;28;20191;-68
2023/05/29 06:52:46;;;;;;;6.37;5.40;;;;;;;19.17;42.56;96300.25;4987741;28;20326;-68
2023/05/29 06:55:11;;;;;;;7.17;5.80;;;;;;;19.53;41.58;96299.09;4983535;28;20189;-69
2023/05/29 06:57:37;;;;;;;5.97;5.37;;;;;;;19.41;41.95;96303.59;4984571;28;20224;-69
2023/05/29 07:00:07;;;;;;;12.77;6.00;;;;;;;19.72;41.22;96313.59;4984428;28;20188;-69
2023/05/29 07:02:33;;;;;;;7.70;5.77;;;;;;;19.38;42.21;96298.53;4984027;28;20193;-69
2023/05/29 07:04:58;;;;;;;16.57;7.47;;;;;;;19.68;41.68;96307.69;4989309;28;21231;-69
2023/05/29 07:07:23;;;;;;;14.50;7.20;;;;;;;20.52;39.96;96297.09;4990510;28;20201;-70
2023/05/29 07:09:49;;;;;;;10.67;6.73;;;;;;;20.62;39.76;96299.84;4987193;28;20887;-67
2023/05/29 07:12:14;;;;;;;10.83;6.90;;;;;;;19.95;40.99;96304.56;4987466;28;20184;-70
2023/05/29 07:14:40;;;;;;;8.70;6.10;;;;;;;19.37;42.74;96309.28;4988789;28;20177;-70
2023/05/29 07:17:05;;;;;;;11.33;6.60;;;;;;;19.84;42.57;96317.91;4993828;28;20648;-69
2023/05/29 07:19:33;;;;;;;11.03;6.33;;;;;;;19.79;42.12;96315.63;4989141;28;20173;-69
2023/05/29 07:21:59;;;;;;;8.80;6.73;;;;;;;19.45;43.36;96317.50;4980502;28;20654;-70
2023/05/29 07:24:25;;;;;;;11.93;6.57;;;;;;;18.92;44.82;96317.31;4987132;28;20539;-70
2023/05/29 07:26:50;;;;;;;11.70;6.03;;;;;;;19.41;43.89;96314.22;4982292;28;20209;-69
2023/05/29 07:29:17;;;;;;;10.43;7.13;;;;;;;19.72;43.07;96317.09;4987845;28;20191;-70
2023/05/29 07:31:44;;;;;;;15.67;6.70;;;;;;;20.06;42.31;96307.19;4988394;28;20212;-68
2023/05/29 07:34:10;;;;;;;11.93;7.30;;;;;;;20.66;41.30;96301.28;5002285;28;20430;-70
2023/05/29 07:36:35;;;;;;;10.20;6.50;;;;;;;20.40;41.26;96306.16;5003197;28;20451;-70
2023/05/29 07:39:02;;;;;;;9.63;6.00;;;;;;;19.83;42.96;96311.75;4996463;28;20428;-71
2023/05/29 07:41:27;;;;;;;7.97;6.90;;;;;;;19.66;43.43;96314.91;4995330;28;20176;-70
2023/05/29 07:43:53;;;;;;;10.57;6.30;;;;;;;19.96;43.05;96300.06;4987612;28;21000;-69
2023/05/29 07:46:19;;;;;;;11.43;6.43;;;;;;;20.05;42.76;96304.63;4985979;28;20914;-68
2023/05/29 07:48:46;;;;;;;6.90;5.47;;;;;;;20.14;42.33;96298.53;4984722;28;20193;-69
2023/05/29 07:51:11;;;;;;;8.33;4.77;;;;;;;21.87;45.23;96295.91;4985164;28;20443;-69
2023/05/29 07:53:37;;;;;;;6.93;5.87;;;;;;;21.64;41.90;96295.34;4984689;28;20431;-68
2023/05/29 07:56:02;;;;;;;7.37;5.90;;;;;;;21.19;40.65;96308.25;4986735;28;20192;-69
2023/05/29 07:58:28;;;;;;;11.27;6.00;;;;;;;21.26;41.17;96307.59;4986372;28;20184;-68
2023/05/29 08:00:53;;;;;;;9.13;6.57;;;;;;;21.36;40.99;96305.78;4986801;28;20187;-70
2023/05/29 08:03:19;;;;;;;10.53;5.90;;;;;;;21.68;39.56;96310.09;4985891;28;20200;-69
2023/05/29 08:05:44;;;;;;;10.20;6.67;;;;;;;21.25;39.99;96308.56;4986657;28;20957;-68
2023/05/29 08:08:12;;;;;;;8.23;6.23;;;;;;;21.12;39.73;96303.47;4986695;28;20363;-71
2023/05/29 08:10:38;;;;;;;7.83;5.73;;;;;;;20.43;41.26;96308.53;4986497;28;20188;-71
2023/05/29 08:13:04;;;;;;;14.03;6.17;;;;;;;21.12;40.58;96311.47;4986463;28;20467;-70
2023/05/29 08:15:31;;;;;;;11.67;6.23;;;;;;;21.22;40.73;96302.66;4985902;28;20177;-69
2023/05/29 08:17:56;;;;;;;9.60;6.27;;;;;;;21.74;39.54;96309.56;4986447;28;20221;-73
2023/05/29 08:20:22;;;;;;;10.93;6.17;;;;;;;21.47;39.30;96304.88;4987232;28;21037;-69
2023/05/29 08:22:47;;;;;;;9.17;6.50;;;;;;;20.91;40.25;96314.19;4987078;28;20258;-73
2023/05/29 08:25:12;;;;;;;7.60;6.10;;;;;;;21.14;40.17;96314.00;4986476;28;20188;-72
2023/05/29 08:27:38;;;;;;;7.93;5.63;;;;;;;21.35;40.28;96305.91;4987396;28;20197;-71
2023/05/29 08:30:04;;;;;;;8.67;6.47;;;;;;;21.28;39.82;96312.78;4986820;28;20677;-70
2023/05/29 08:32:29;;;;;;;9.63;5.80;;;;;;;21.44;40.12;96305.13;4986571;28;20531;-69
2023/05/29 08:34:54;;;;;;;10.13;5.77;;;;;;;21.25;40.02;96316.56;4985850;28;20180;-73
2023/05/29 08:37:20;;;;;;;9.10;6.37;;;;;;;21.33;40.41;96321.22;4987102;28;20205;-68
2023/05/29 08:39:45;;;;;;;10.57;7.23;;;;;;;21.63;39.72;96308.84;4986464;28;20272;-71
2023/05/29 08:42:20;;;;;;;10.00;6.30;;;;;;;22.05;38.71;96313.94;4986704;28;20215;-71
2023/05/29 08:44:50;;;;;;;6.50;5.90;;;;;;;21.97;38.46;96317.31;4977204;28;20282;-71
2023/05/29 08:47:20;;;;;;;9.33;5.40;;;;;;;21.99;37.79;96308.19;4986676;28;20459;-69
2023/05/29 08:49:52;;;;;;;25.33;7.60;;;;;;;21.69;38.59;96310.97;4986457;28;20439;-72
2023/05/29 08:52:27;;;;;;;9.23;5.93;;;;;;;21.82;38.72;96308.00;4986006;28;21109;-72
2023/05/29 08:54:54;;;;;;;10.80;5.70;;;;;;;21.90;38.27;96302.84;4985114;28;21040;-69
2023/05/29 08:57:20;;;;;;;9.03;6.10;;;;;;;22.67;36.75;96303.75;4985515;28;20443;-71
2023/05/29 08:59:49;;;;;;;7.33;5.60;;;;;;;22.75;36.30;96294.03;4980542;28;20436;-68
2023/05/29 09:02:15;;;;;;;7.93;5.33;;;;;;;22.85;36.38;96302.03;4984733;28;20990;-70
2023/05/29 09:04:44;;;;;;;8.97;5.50;;;;;;;22.41;38.23;96304.38;4983854;28;20567;-71
2023/05/29 09:07:11;;;;;;;11.30;5.33;;;;;;;22.58;37.30;96294.75;4984234;28;20447;-72
2023/05/29 09:09:37;;;;;;;9.80;6.10;;;;;;;22.12;37.03;96305.22;4983265;28;20428;-70
2023/05/29 09:12:03;;;;;;;9.30;6.30;;;;;;;22.28;36.58;96302.00;4985182;28;20486;-68
2023/05/29 09:14:40;;;;;;;8.20;5.60;;;;;;;22.21;35.76;96300.06;4982475;28;20285;-71
2023/05/29 09:17:08;;;;;;;5.43;4.93;;;;;;;22.10;35.92;96304.50;4981456;28;20563;-72
2023/05/29 09:19:34;;;;;;;9.33;5.93;;;;;;;22.65;35.33;96301.22;4983194;28;20420;-71
2023/05/29 09:22:01;;;;;;;7.80;5.37;;;;;;;22.38;35.24;96300.16;4978129;28;21054;-72
2023/05/29 09:24:27;;;;;;;9.50;5.23;;;;;;;21.84;35.81;96300.72;4981985;28;20537;-74
2023/05/29 09:26:53;;;;;;;6.90;5.13;;;;;;;22.09;35.24;96310.84;4983398;28;20454;-72
2023/05/29 09:29:20;;;;;;;11.63;5.53;;;;;;;22.40;35.21;96308.03;4981812;28;20429;-71
2023/05/29 09:31:49;;;;;;;14.67;5.90;;;;;;;22.31;32.78;96314.25;4975424;28;20238;-69
2023/05/29 09:34:15;;;;;;;8.60;5.43;;;;;;;22.23;33.22;96311.41;4984384;28;20416;-69
2023/05/29 09:36:40;;;;;;;8.00;5.00;;;;;;;22.21;33.49;96313.41;4988526;28;20510;-70
2023/05/29 09:39:09;;;;;;;8.90;4.67;;;;;;;22.57;33.17;96304.63;4982723;28;20262;-71
2023/05/29 09:41:41;;;;;;;8.80;4.40;;;;;;;22.68;32.14;96302.75;4982619;28;20188;-72
2023/05/29 09:44:10;;;;;;;10.80;5.33;;;;;;;22.62;32.75;96305.03;4982358;28;20466;-68
2023/05/29 09:46:35;;;;;;;8.67;4.67;;;;;;;22.86;32.50;96313.56;4982488;28;20487;-68
2023/05/29 09:49:10;;;;;;;10.93;5.27;;;;;;;22.72;30.84;96312.19;4979795;28;20516;-68
2023/05/29 09:51:36;;;;;;;9.57;5.30;;;;;;;22.69;31.15;96312.50;4985494;28;20183;-69
2023/05/29 09:54:14;;;;;;;5.97;4.83;;;;;;;22.38;32.15;96324.22;4984528;28;20429;-69
2023/05/29 09:56:42;;;;;;;7.93;5.10;;;;;;;22.26;33.02;96314.66;4984451;28;20200;-69
2023/05/29 09:59:11;;;;;;;9.37;5.40;;;;;;;22.48;32.52;96329.56;4984615;28;21084;-69
2023/05/29 10:01:42;;;;;;;7.63;5.40;;;;;;;22.56;32.95;96324.34;4984616;28;20427;-71
2023/05/29 10:04:11;;;;;;;9.50;5.33;;;;;;;23.00;32.53;96321.16;4978185;28;20816;-70
2023/05/29 10:06:38;;;;;;;7.33;4.80;;;;;;;22.77;32.85;96321.50;4980977;28;20826;-68
2023/05/29 10:09:10;;;;;;;6.40;4.57;;;;;;;22.38;32.88;96320.72;4982408;28;20440;-68
2023/05/29 10:11:37;;;;;;;7.23;5.03;;;;;;;22.41;33.09;96315.91;4984386;28;20558;-69
2023/05/29 10:14:05;;;;;;;10.30;4.47;;;;;;;22.80;33.04;96320.34;4982554;28;20420;-70
2023/05/29 10:16:35;;;;;;;5.83;5.23;;;;;;;22.73;32.52;96303.19;4979247;28;20924;-69
2023/05/29 10:19:07;;;;;;;9.00;4.90;;;;;;;23.25;31.96;96308.94;4983185;28;20408;-69
2023/05/29 10:21:36;;;;;;;6.07;4.90;;;;;;;23.02;32.55;96313.84;4982217;28;21000;-70
2023/05/29 10:24:06;;;;;;;5.97;5.20;;;;;;;23.03;32.91;96307.47;4981445;28;20467;-69
2023/05/29 10:26:36;;;;;;;8.00;4.60;;;;;;;22.80;33.24;96306.97;4983306;28;21030;-73
2023/05/29 10:29:21;;;;;;;6.33;4.70;;;;;;;22.73;33.56;96305.88;4983065;28;21140;-71
2023/05/29 10:32:06;;;;;;;8.10;3.93;;;;;;;22.77;33.59;96296.53;4981708;28;20423;-68
2023/05/29 10:34:38;;;;;;;8.50;4.90;;;;;;;23.00;33.04;96295.22;4981891;28;20948;-69
2023/05/29 10:37:12;;;;;;;7.07;5.03;;;;;;;22.85;32.58;96298.53;4982984;28;20436;-70
2023/05/29 10:39:37;;;;;;;9.37;6.10;;;;;;;22.78;33.03;96299.09;4984479;28;20426;-68
2023/05/29 10:42:58;;;;;;;4.70;3.87;;;;;;;22.86;32.74;96287.66;4987232;28;20411;-70
2023/05/29 10:45:30;;;;;;;6.07;4.60;;;;;;;22.74;32.40;96307.56;4985254;28;20564;-69
2023/05/29 10:47:56;;;;;;;6.47;3.90;;;;;;;22.42;33.44;96308.75;4986524;28;20436;-70
2023/05/29 10:50:42;;;;;;;7.87;4.63;;;;;;;22.72;32.68;96296.97;4986266;28;20407;-72
2023/05/29 10:53:16;;;;;;;9.57;4.73;;;;;;;23.01;32.09;96290.75;4986236;28;20883;-69
2023/05/29 10:55:41;;;;;;;7.73;4.70;;;;;;;23.03;31.26;96300.31;4986139;28;21219;-71
2023/05/29 10:58:33;;;;;;;6.63;4.10;;;;;;;22.31;32.22;96298.22;4986185;28;20431;-69
2023/05/29 11:00:59;;;;;;;5.43;3.90;;;;;;;22.35;32.09;96304.97;4985349;28;20224;-70
2023/05/29 11:03:34;;;;;;;8.10;4.00;;;;;;;22.43;31.56;96299.72;4985604;28;20928;-71
2023/05/29 11:06:05;;;;;;;7.83;4.27;;;;;;;22.66;30.38;96294.06;4985189;28;21055;-70
2023/05/29 11:08:54;;;;;;;4.53;3.60;;;;;;;22.87;29.86;96286.69;4985764;28;20841;-71
2023/05/29 11:11:35;;;;;;;7.07;3.50;;;;;;;23.09;28.83;96292.69;4983305;28;20428;-69
2023/05/29 11:14:04;;;;;;;7.90;4.03;;;;;;;23.07;27.59;96294.66;4985356;28;20416;-70
2023/05/29 11:16:29;;;;;;;5.10;4.07;;;;;;;23.30;28.50;96293.28;4985990;28;20536;-69
2023/05/29 11:18:56;;;;;;;4.80;3.93;;;;;;;23.45;27.91;96291.78;4986344;28;21254;-69
2023/05/29 11:21:25;;;;;;;7.20;3.83;;;;;;;23.30;28.11;96295.97;4986557;28;20591;-71
2023/05/29 11:23:52;;;;;;;7.70;4.40;;;;;;;23.16;27.62;96291.09;4985188;28;20497;-72
2023/05/29 11:26:19;;;;;;;10.37;4.33;;;;;;;23.28;28.31;96294.41;4986433;28;20459;-70
2023/05/29 11:28:46;;;;;;;7.93;4.20;;;;;;;23.08;28.25;96291.84;4985741;28;20818;-70
2023/05/29 11:31:13;;;;;;;6.10;3.67;;;;;;;23.17;27.82;96290.09;4986482;28;20415;-70